Time;durP1;ratioP1;P1;durP2;ratioP2;P2;SDS_P1;SDS_P2;PMS_P1;PMS_P2;Temp;Humidity;BMP_temperature;BMP_pressure;BME280_temperature;BME280_humidity;BME280_pressure;Samples;Min_cycle;Max_cycle;Signal;HPM_P1;HPM_P2
2023/04/04 00:00:41;;;;;;;5.90;1.33;;;;;;;12.48;43.13;101753.91;5072886;28;20037;-64
2023/04/04 00:03:07;;;;;;;3.22;1.02;;;;;;;12.66;42.92;101751.56;5072769;28;20095;-63
2023/04/04 00:05:34;;;;;;;2.90;0.80;;;;;;;12.83;41.69;101744.84;5072589;28;20024;-63
2023/04/04 00:08:01;;;;;;;7.72;1.08;;;;;;;12.75;41.75;101753.03;5073006;28;20025;-64
2023/04/04 00:10:28;;;;;;;4.45;1.15;;;;;;;12.63;43.73;101754.63;5072691;28;20025;-62
2023/04/04 00:12:54;;;;;;;2.55;1.10;;;;;;;12.57;43.15;101756.25;5072051;28;20055;-62
2023/04/04 00:15:21;;;;;;;3.78;1.20;;;;;;;12.66;42.65;101752.38;5072809;28;20603;-63
2023/04/04 00:17:47;;;;;;;3.10;1.10;;;;;;;12.79;42.91;101748.13;5072553;28;20115;-63
2023/04/04 00:20:13;;;;;;;4.90;1.48;;;;;;;12.60;41.22;101760.38;5072593;28;20063;-63
2023/04/04 00:22:40;;;;;;;3.70;1.00;;;;;;;12.41;41.95;101773.47;5072243;28;20017;-63
2023/04/04 00:25:07;;;;;;;3.42;0.80;;;;;;;12.30;42.60;101760.59;5071818;28;20028;-63
2023/04/04 00:27:33;;;;;;;2.55;1.00;;;;;;;12.22;43.69;101754.56;5089053;28;20111;-63
2023/04/04 00:29:59;;;;;;;8.50;1.30;;;;;;;12.17;43.12;101759.66;5088815;28;20489;-59
2023/04/04 00:32:26;;;;;;;2.95;1.27;;;;;;;12.17;42.92;101759.66;5086218;28;20477;-62
2023/04/04 00:34:53;;;;;;;5.82;0.80;;;;;;;11.91;42.81;101765.63;5092207;28;20042;-59
2023/04/04 00:37:20;;;;;;;4.35;1.20;;;;;;;12.06;43.20;101752.97;5092470;28;20373;-61
2023/04/04 00:39:46;;;;;;;5.22;1.02;;;;;;;12.04;43.92;101760.38;5092740;28;20032;-59
2023/04/04 00:42:12;;;;;;;5.53;1.13;;;;;;;11.86;43.85;101750.94;5087292;28;20028;-60
2023/04/04 00:44:39;;;;;;;6.13;1.65;;;;;;;11.80;44.79;101754.34;5112461;27;20503;-60
2023/04/04 00:47:06;;;;;;;7.82;1.48;;;;;;;11.72;44.83;101765.22;5105598;28;20089;-61
2023/04/04 00:49:33;;;;;;;4.30;0.90;;;;;;;11.64;45.00;101760.78;5112653;28;20028;-60
2023/04/04 00:51:59;;;;;;;6.00;1.27;;;;;;;11.61;46.21;101755.81;5093593;28;20054;-61
2023/04/04 00:54:26;;;;;;;3.42;1.15;;;;;;;11.63;46.09;101774.41;5112159;28;20024;-60
2023/04/04 00:56:54;;;;;;;8.95;1.48;;;;;;;11.57;46.60;101767.13;5095710;28;20407;-61
2023/04/04 00:59:26;;;;;;;3.72;1.27;;;;;;;11.55;46.50;101780.72;5112462;28;20015;-61
2023/04/04 01:01:53;;;;;;;4.82;1.50;;;;;;;11.47;47.84;101771.94;5105111;28;20102;-62
2023/04/04 01:04:19;;;;;;;3.17;0.90;;;;;;;11.33;47.52;101776.34;5112217;27;20031;-61
2023/04/04 01:06:45;;;;;;;6.80;1.25;;;;;;;11.26;48.83;101776.22;5098829;28;20027;-61
2023/04/04 01:09:12;;;;;;;4.78;1.10;;;;;;;11.19;48.50;101775.31;5092113;28;20071;-61
2023/04/04 01:11:38;;;;;;;4.57;1.45;;;;;;;11.14;49.05;101780.41;5089074;28;20040;-61
2023/04/04 01:14:05;;;;;;;5.45;0.85;;;;;;;11.10;48.53;101789.84;5111766;28;20487;-61
2023/04/04 01:16:35;;;;;;;5.88;1.50;;;;;;;10.88;49.18;101782.72;5105173;28;20047;-61
2023/04/04 01:19:03;;;;;;;8.75;1.70;;;;;;;10.88;49.36;101786.25;5114154;28;20034;-61
2023/04/04 01:21:30;;;;;;;11.85;1.77;;;;;;;10.82;49.14;101785.13;5104812;28;20419;-62
2023/04/04 01:24:01;;;;;;;3.58;1.17;;;;;;;10.79;49.29;101777.47;5106236;28;20027;-61
2023/04/04 01:26:28;;;;;;;5.97;1.33;;;;;;;10.79;48.58;101776.66;5072165;28;20131;-62
2023/04/04 01:28:58;;;;;;;4.60;1.30;;;;;;;10.77;48.42;101774.16;5076577;28;20019;-61
2023/04/04 01:31:39;;;;;;;6.70;1.58;;;;;;;10.84;48.67;101774.25;5071171;28;20020;-64
2023/04/04 01:34:15;;;;;;;6.97;1.75;;;;;;;10.68;48.96;101769.91;5086000;28;20106;-63
2023/04/04 01:36:52;;;;;;;5.10;1.70;;;;;;;10.55;49.44;101770.56;5081171;28;20044;-64
2023/04/04 01:39:39;;;;;;;9.55;1.52;;;;;;;10.66;49.12;101769.28;5071603;28;20384;-63
2023/04/04 01:42:06;;;;;;;6.10;1.88;;;;;;;10.67;49.83;101776.28;5071137;28;20021;-63
2023/04/04 01:44:33;;;;;;;5.32;1.65;;;;;;;10.60;50.43;101778.00;5071133;28;20032;-63
2023/04/04 01:46:59;;;;;;;9.90;2.00;;;;;;;10.56;51.07;101774.06;5071499;28;20057;-62
2023/04/04 01:49:25;;;;;;;4.93;1.55;;;;;;;10.52;51.17;101778.09;5071610;28;20024;-62
2023/04/04 01:51:54;;;;;;;4.32;1.48;;;;;;;10.54;50.97;101782.25;5071518;28;20127;-62
2023/04/04 01:54:21;;;;;;;6.82;1.88;;;;;;;10.42;51.37;101782.88;5070582;28;20079;-62
2023/04/04 01:56:47;;;;;;;5.22;1.30;;;;;;;10.35;51.33;101790.81;5071438;28;20037;-62
2023/04/04 01:59:13;;;;;;;8.00;1.55;;;;;;;10.23;52.42;101798.44;5071555;28;20058;-62
2023/04/04 02:01:40;;;;;;;4.90;1.38;;;;;;;10.23;52.46;101801.13;5074021;28;20038;-63
2023/04/04 02:04:07;;;;;;;6.05;1.48;;;;;;;10.13;52.23;101805.03;5078613;28;20036;-62
2023/04/04 02:06:33;;;;;;;5.72;1.52;;;;;;;10.08;52.35;101824.28;5075339;28;20031;-63
2023/04/04 02:08:59;;;;;;;4.40;1.58;;;;;;;10.05;53.10;101806.75;5079625;28;20020;-63
2023/04/04 02:11:26;;;;;;;7.32;1.48;;;;;;;9.98;54.41;101816.47;5089429;28;20479;-63
2023/04/04 02:13:52;;;;;;;4.72;1.77;;;;;;;9.77;55.09;101822.50;5099817;28;20051;-62
2023/04/04 02:16:19;;;;;;;3.83;1.70;;;;;;;9.68;55.74;101814.69;5095344;28;20048;-62
2023/04/04 02:18:45;;;;;;;12.85;1.95;;;;;;;9.56;55.93;101810.75;5095354;28;20133;-62
2023/04/04 02:21:11;;;;;;;7.95;1.80;;;;;;;9.61;55.83;101816.41;5095296;28;20360;-63
2023/04/04 02:23:38;;;;;;;7.15;1.52;;;;;;;9.63;55.80;101817.06;5079342;28;20358;-63
2023/04/04 02:26:04;;;;;;;4.03;1.38;;;;;;;9.56;55.71;101813.44;5075104;28;20078;-63
2023/04/04 02:28:30;;;;;;;5.78;1.42;;;;;;;9.51;55.71;101819.28;5094079;28;20020;-64
2023/04/04 02:31:04;;;;;;;6.88;1.40;;;;;;;9.52;55.25;101819.13;5095744;28;20484;-64
2023/04/04 02:33:30;;;;;;;3.72;1.20;;;;;;;9.48;56.05;101824.97;5094716;28;20034;-63
2023/04/04 02:35:58;;;;;;;4.45;1.20;;;;;;;9.25;56.58;101820.41;5092505;28;20065;-63
2023/04/04 02:38:25;;;;;;;6.28;1.35;;;;;;;9.18;56.19;101830.13;5081865;28;20032;-61
2023/04/04 02:40:52;;;;;;;7.22;1.35;;;;;;;9.19;56.08;101825.59;5097214;28;20051;-64
2023/04/04 02:43:18;;;;;;;7.45;1.52;;;;;;;9.06;56.69;101820.00;5085891;28;20033;-63
2023/04/04 02:45:48;;;;;;;5.53;1.50;;;;;;;9.07;57.10;101835.84;5083829;28;20027;-63
2023/04/04 02:48:14;;;;;;;8.70;1.67;;;;;;;9.10;56.72;101827.47;5079472;28;20760;-63
2023/04/04 02:50:40;;;;;;;8.10;1.67;;;;;;;9.08;56.85;101828.66;5074531;28;20021;-64
2023/04/04 02:53:07;;;;;;;6.63;1.33;;;;;;;9.13;56.89;101842.31;5086411;28;20020;-62
2023/04/04 02:55:33;;;;;;;7.55;1.60;;;;;;;9.11;56.62;101847.84;5093702;28;20032;-63
2023/04/04 02:58:00;;;;;;;4.05;1.33;;;;;;;9.10;56.63;101848.00;5094640;28;20048;-64
2023/04/04 03:00:27;;;;;;;6.60;1.50;;;;;;;9.00;56.60;101861.56;5094558;28;20032;-63
2023/04/04 03:02:56;;;;;;;4.82;1.45;;;;;;;8.96;56.45;101857.56;5094126;28;20123;-62
2023/04/04 03:05:27;;;;;;;4.10;1.33;;;;;;;8.97;56.00;101859.22;5102647;28;20030;-62
2023/04/04 03:07:57;;;;;;;3.90;1.10;;;;;;;8.94;56.11;101857.75;5103682;28;20024;-62
2023/04/04 03:10:25;;;;;;;7.22;1.50;;;;;;;8.88;56.16;101858.44;5094638;28;20036;-63
2023/04/04 03:12:52;;;;;;;3.22;1.00;;;;;;;8.90;55.73;101866.25;5093674;28;20434;-63
2023/04/04 03:15:18;;;;;;;5.38;1.40;;;;;;;8.85;56.08;101877.44;5079528;28;20098;-62
2023/04/04 03:17:45;;;;;;;5.53;1.05;;;;;;;8.73;55.25;101873.47;5082314;28;20431;-61
2023/04/04 03:20:15;;;;;;;3.45;1.10;;;;;;;8.84;55.85;101875.78;5072059;28;20059;-60
2023/04/04 03:22:41;;;;;;;5.18;1.52;;;;;;;8.86;55.35;101878.28;5087376;28;20050;-60
2023/04/04 03:25:08;;;;;;;2.50;1.00;;;;;;;8.76;55.80;101878.44;5081577;28;20031;-60
2023/04/04 03:27:35;;;;;;;4.07;1.30;;;;;;;8.61;56.64;101886.31;5090921;28;20031;-60
2023/04/04 03:30:01;;;;;;;4.05;1.20;;;;;;;8.66;56.14;101893.78;5089215;28;20069;-61
2023/04/04 03:32:27;;;;;;;8.10;1.65;;;;;;;8.69;55.71;101888.97;5093303;28;20073;-61
2023/04/04 03:34:54;;;;;;;4.22;1.23;;;;;;;8.68;55.12;101892.63;5093242;28;20055;-61
2023/04/04 03:37:21;;;;;;;5.63;1.08;;;;;;;8.56;55.66;101903.81;5093617;28;20054;-61
2023/04/04 03:39:47;;;;;;;5.00;1.25;;;;;;;8.71;55.49;101902.97;5103963;28;20028;-61
2023/04/04 03:42:14;;;;;;;6.35;1.00;;;;;;;8.61;55.96;101901.50;5093223;28;20696;-61
2023/04/04 03:44:41;;;;;;;2.33;0.95;;;;;;;8.70;55.55;101911.97;5093620;28;20063;-61
2023/04/04 03:47:08;;;;;;;3.45;1.13;;;;;;;8.71;56.26;101915.47;5092956;28;20020;-61
2023/04/04 03:49:34;;;;;;;6.20;1.10;;;;;;;8.59;56.12;101917.66;5093526;28;20063;-60
2023/04/04 03:52:03;;;;;;;3.88;1.10;;;;;;;8.64;55.66;101928.66;5093398;28;20023;-60
2023/04/04 03:54:29;;;;;;;3.40;0.95;;;;;;;8.60;55.36;101932.66;5093180;28;20036;-60
2023/04/04 03:56:56;;;;;;;5.15;1.00;;;;;;;8.69;55.73;101931.66;5093765;28;20028;-61
2023/04/04 03:59:23;;;;;;;4.28;1.10;;;;;;;8.90;54.88;101938.34;5093437;28;20032;-61
2023/04/04 04:01:49;;;;;;;3.92;1.17;;;;;;;8.64;56.39;101930.50;5085955;28;20028;-61
2023/04/04 04:04:15;;;;;;;6.22;1.30;;;;;;;8.72;55.89;101936.69;5092397;28;20070;-61
2023/04/04 04:06:42;;;;;;;5.13;1.30;;;;;;;8.62;56.77;101933.34;5092590;28;20028;-61
2023/04/04 04:09:11;;;;;;;4.10;1.38;;;;;;;8.70;56.71;101943.19;5093260;28;20464;-61
2023/04/04 04:11:37;;;;;;;7.70;1.20;;;;;;;8.57;55.94;101957.03;5093147;28;20048;-61
2023/04/04 04:14:03;;;;;;;3.15;0.95;;;;;;;8.61;56.80;101945.03;5092845;28;20489;-61
2023/04/04 04:16:30;;;;;;;2.65;1.23;;;;;;;8.42;56.59;101951.50;5092870;28;20030;-61
2023/04/04 04:18:57;;;;;;;5.72;1.23;;;;;;;8.43;56.79;101955.00;5092450;28;20061;-61
2023/04/04 04:21:24;;;;;;;2.55;0.77;;;;;;;8.48;55.68;101955.34;5092944;28;20055;-60
2023/04/04 04:23:51;;;;;;;7.10;0.90;;;;;;;8.44;56.26;101964.69;5093704;28;20472;-60
2023/04/04 04:26:17;;;;;;;2.35;0.90;;;;;;;8.46;56.09;101968.84;5098270;28;20426;-60
2023/04/04 04:28:44;;;;;;;4.63;1.13;;;;;;;8.46;55.90;101973.34;5092895;28;20055;-60
2023/04/04 04:31:11;;;;;;;3.08;0.98;;;;;;;8.36;55.67;101975.34;5102802;28;20040;-61
2023/04/04 04:33:37;;;;;;;3.97;1.02;;;;;;;8.41;56.10;101975.69;5086354;28;20036;-61
2023/04/04 04:36:05;;;;;;;6.25;0.90;;;;;;;8.34;55.67;101970.13;5099765;28;20047;-60
2023/04/04 04:38:32;;;;;;;3.33;0.90;;;;;;;8.15;56.22;101976.56;5104831;28;20522;-60
2023/04/04 04:41:00;;;;;;;2.65;1.00;;;;;;;8.25;55.84;101972.94;5092559;28;20024;-61
2023/04/04 04:43:26;;;;;;;2.92;0.85;;;;;;;8.27;55.24;101974.44;5091923;28;20032;-60
2023/04/04 04:45:53;;;;;;;3.55;0.82;;;;;;;8.23;55.62;101975.78;5091070;28;20040;-60
2023/04/04 04:48:19;;;;;;;4.18;1.00;;;;;;;8.21;55.74;101973.25;5092127;28;20020;-61
2023/04/04 04:50:46;;;;;;;6.07;1.17;;;;;;;8.17;56.10;101968.44;5091205;28;20032;-61
2023/04/04 04:53:13;;;;;;;3.25;0.90;;;;;;;8.26;55.49;101978.09;5091867;28;20031;-60
2023/04/04 04:55:41;;;;;;;5.03;1.00;;;;;;;8.08;55.81;101980.06;5086326;28;20123;-60
2023/04/04 04:58:09;;;;;;;5.65;1.25;;;;;;;8.08;56.36;101980.91;5071939;28;20032;-60
2023/04/04 05:00:36;;;;;;;5.00;1.08;;;;;;;8.18;55.27;101986.94;5071953;28;20016;-61
2023/04/04 05:03:06;;;;;;;5.25;1.20;;;;;;;8.18;55.50;101978.09;5074737;28;20081;-61
2023/04/04 05:05:36;;;;;;;3.17;0.85;;;;;;;7.95;56.10;101993.84;5094543;28;20024;-60
2023/04/04 05:08:03;;;;;;;2.13;0.90;;;;;;;8.01;56.26;101989.72;5092089;28;20802;-60
2023/04/04 05:10:30;;;;;;;3.00;0.80;;;;;;;7.96;56.43;101994.69;5091879;28;20065;-60
2023/04/04 05:12:57;;;;;;;3.80;0.98;;;;;;;8.10;55.90;102002.88;5091794;28;20044;-60
2023/04/04 05:15:29;;;;;;;2.90;0.90;;;;;;;7.84;56.75;101994.16;5091928;28;20032;-60
2023/04/04 05:17:57;;;;;;;2.75;1.02;;;;;;;7.96;56.85;102000.84;5092156;28;20468;-61
2023/04/04 05:20:23;;;;;;;2.88;0.80;;;;;;;8.02;56.24;101996.72;5095975;28;20051;-61
2023/04/04 05:22:49;;;;;;;3.17;0.95;;;;;;;7.91;56.40;101997.81;5112326;28;20024;-61
2023/04/04 05:25:15;;;;;;;2.75;0.80;;;;;;;8.00;56.54;101994.22;5112648;28;20486;-60
2023/04/04 05:27:46;;;;;;;3.33;1.00;;;;;;;7.83;56.78;101992.47;5112472;28;20028;-61
2023/04/04 05:30:12;;;;;;;3.58;0.93;;;;;;;7.74;57.59;101998.75;5112641;28;20019;-60
2023/04/04 05:32:39;;;;;;;2.88;1.23;;;;;;;7.83;57.07;102000.47;5112063;28;20121;-61
2023/04/04 05:35:06;;;;;;;3.97;1.20;;;;;;;7.80;56.91;101998.94;5111924;28;20020;-61
2023/04/04 05:37:32;;;;;;;2.08;0.77;;;;;;;7.74;57.17;101998.75;5111392;28;20023;-60
2023/04/04 05:39:58;;;;;;;4.78;1.00;;;;;;;7.75;57.34;101995.91;5111761;28;20098;-60
2023/04/04 05:42:25;;;;;;;4.60;1.40;;;;;;;7.77;57.39;101998.41;5091657;28;20032;-61
2023/04/04 05:44:51;;;;;;;3.30;1.08;;;;;;;7.85;57.18;102001.13;5095535;28;20036;-61
2023/04/04 05:47:17;;;;;;;3.03;0.90;;;;;;;7.75;57.16;101995.09;5094910;28;20059;-61
2023/04/04 05:49:43;;;;;;;4.35;1.00;;;;;;;7.60;57.88;101995.66;5095651;28;20020;-61
2023/04/04 05:52:10;;;;;;;3.60;1.08;;;;;;;7.71;57.91;101999.88;5095350;28;20016;-60
2023/04/04 05:54:36;;;;;;;3.75;1.00;;;;;;;7.64;58.13;101998.84;5093098;28;20124;-59
2023/04/04 05:57:02;;;;;;;2.88;1.13;;;;;;;7.52;57.83;101998.28;5092000;28;20035;-60
2023/04/04 05:59:29;;;;;;;2.88;0.98;;;;;;;7.60;56.70;102000.16;5094411;28;20051;-59
2023/04/04 06:01:55;;;;;;;3.55;0.80;;;;;;;7.68;57.16;102005.56;5095166;28;20028;-61
2023/04/04 06:04:21;;;;;;;4.03;0.93;;;;;;;7.59;57.60;102019.81;5095157;28;20027;-60
2023/04/04 06:06:48;;;;;;;4.88;1.00;;;;;;;7.57;58.00;102009.31;5095475;28;20383;-62
2023/04/04 06:09:14;;;;;;;3.03;0.95;;;;;;;7.51;56.66;102015.28;5095334;28;20028;-59
2023/04/04 06:11:40;;;;;;;3.17;1.23;;;;;;;7.58;56.99;102007.50;5095753;28;20028;-60
2023/04/04 06:14:07;;;;;;;2.17;0.95;;;;;;;7.45;56.92;102020.41;5094676;28;20078;-60
2023/04/04 06:16:35;;;;;;;3.42;0.98;;;;;;;7.50;57.07;102013.63;5095035;28;20059;-60
2023/04/04 06:19:01;;;;;;;2.50;0.85;;;;;;;7.41;57.32;102009.22;5095000;28;20414;-59
2023/04/04 06:21:28;;;;;;;4.35;1.20;;;;;;;7.43;57.15;102017.03;5095395;28;20024;-60
2023/04/04 06:23:54;;;;;;;3.97;1.17;;;;;;;7.41;57.49;102014.53;5094822;28;20032;-60
2023/04/04 06:26:20;;;;;;;3.50;1.13;;;;;;;7.32;58.24;102005.66;5094796;28;20024;-60
2023/04/04 06:28:48;;;;;;;4.75;1.08;;;;;;;7.47;57.64;102013.91;5095458;28;20049;-59
2023/04/04 06:31:15;;;;;;;4.53;1.00;;;;;;;7.36;57.25;102008.84;5094956;28;20046;-59
2023/04/04 06:33:42;;;;;;;1.83;0.70;;;;;;;7.41;57.60;102010.06;5094809;28;20511;-59
2023/04/04 06:36:08;;;;;;;4.28;1.10;;;;;;;7.46;57.19;102017.56;5094742;28;20032;-60
2023/04/04 06:38:35;;;;;;;1.70;0.82;;;;;;;7.37;57.74;102013.19;5094772;28;20415;-60
2023/04/04 06:41:01;;;;;;;2.33;0.85;;;;;;;7.46;57.75;102014.06;5094473;28;20024;-60
2023/04/04 06:43:28;;;;;;;3.33;0.85;;;;;;;7.33;58.06;102011.84;5094551;28;20024;-59
2023/04/04 06:45:54;;;;;;;1.60;0.80;;;;;;;7.48;57.48;102015.59;5102362;28;20096;-59
2023/04/04 06:48:21;;;;;;;2.03;1.00;;;;;;;7.45;57.30;102018.56;5112596;28;20055;-60
2023/04/04 06:50:47;;;;;;;4.05;1.02;;;;;;;7.32;57.66;102024.28;5114878;28;20020;-60
2023/04/04 06:53:13;;;;;;;3.30;0.88;;;;;;;7.35;56.95;102033.81;5103980;28;20033;-60
2023/04/04 06:55:40;;;;;;;4.10;0.93;;;;;;;7.26;56.96;102032.06;5082785;28;20028;-60
2023/04/04 06:58:06;;;;;;;3.42;0.90;;;;;;;7.13;57.78;102038.66;5076243;28;20036;-60
2023/04/04 07:00:32;;;;;;;1.90;0.80;;;;;;;7.24;57.70;102036.72;5105622;28;20016;-59
2023/04/04 07:03:01;;;;;;;3.33;0.95;;;;;;;7.23;57.97;102043.06;5095669;28;20106;-59
2023/04/04 07:05:28;;;;;;;5.72;1.00;;;;;;;7.15;58.61;102047.28;5106098;28;20059;-59
2023/04/04 07:07:55;;;;;;;3.65;0.98;;;;;;;7.32;57.63;102044.75;5105287;28;20028;-60
2023/04/04 07:10:25;;;;;;;2.42;0.85;;;;;;;7.14;57.81;102045.63;5101857;28;20077;-59
2023/04/04 07:12:52;;;;;;;2.78;1.08;;;;;;;7.19;58.44;102047.00;5093893;28;20048;-59
2023/04/04 07:15:18;;;;;;;1.80;0.60;;;;;;;7.20;58.42;102041.50;5093563;28;20102;-60
2023/04/04 07:17:44;;;;;;;2.50;0.70;;;;;;;7.29;57.78;102040.59;5093760;28;20031;-60
2023/04/04 07:20:11;;;;;;;5.45;1.20;;;;;;;7.04;58.74;102044.88;5093311;28;20157;-60
2023/04/04 07:22:38;;;;;;;2.75;1.27;;;;;;;7.22;58.91;102036.91;5093141;28;20036;-60
2023/04/04 07:25:05;;;;;;;3.25;1.33;;;;;;;7.24;58.58;102039.38;5093778;28;20032;-60
2023/04/04 07:27:32;;;;;;;4.95;0.80;;;;;;;7.08;58.55;102035.59;5093843;28;20016;-58
2023/04/04 07:29:58;;;;;;;4.22;1.00;;;;;;;7.05;58.73;102041.25;5093901;28;20024;-58
2023/04/04 07:32:24;;;;;;;3.95;0.90;;;;;;;7.22;58.03;102039.56;5093406;28;20514;-58
2023/04/04 07:34:51;;;;;;;2.33;0.77;;;;;;;7.12;57.95;102041.47;5093598;28;20074;-59
2023/04/04 07:37:17;;;;;;;2.25;0.90;;;;;;;7.17;58.02;102039.19;5093917;28;20028;-58
2023/04/04 07:39:44;;;;;;;3.83;0.90;;;;;;;7.06;58.69;102048.25;5093678;28;20020;-58
2023/04/04 07:42:10;;;;;;;4.63;0.98;;;;;;;7.07;58.33;102049.06;5093141;28;20112;-58
2023/04/04 07:44:36;;;;;;;3.58;0.88;;;;;;;7.17;57.84;102055.16;5093346;28;20032;-58
2023/04/04 07:47:03;;;;;;;1.17;0.73;;;;;;;7.13;57.54;102054.63;5093349;28;20028;-59
2023/04/04 07:49:29;;;;;;;2.88;1.17;;;;;;;7.12;57.43;102046.78;5092073;28;20028;-58
2023/04/04 07:51:56;;;;;;;5.07;0.88;;;;;;;7.08;57.30;102051.56;5093126;28;20070;-58
2023/04/04 07:54:23;;;;;;;5.15;1.13;;;;;;;6.99;57.17;102052.47;5093510;28;20016;-60
2023/04/04 07:56:50;;;;;;;4.13;0.85;;;;;;;6.94;57.20;102053.94;5073054;28;20034;-58
2023/04/04 07:59:16;;;;;;;3.25;1.00;;;;;;;6.94;58.08;102052.13;5073245;28;20029;-59
2023/04/04 08:01:43;;;;;;;3.65;0.93;;;;;;;6.90;58.61;102050.75;5072668;28;20485;-59
2023/04/04 08:04:09;;;;;;;3.08;0.70;;;;;;;6.98;58.90;102052.66;5073025;28;20103;-59
2023/04/04 08:06:36;;;;;;;2.78;1.00;;;;;;;6.90;59.29;102052.59;5091433;28;20497;-59
2023/04/04 08:09:03;;;;;;;3.70;0.98;;;;;;;6.99;59.15;102051.66;5090020;28;20034;-59
2023/04/04 08:11:30;;;;;;;5.75;0.90;;;;;;;6.99;59.27;102047.16;5077302;28;20079;-59
2023/04/04 08:13:56;;;;;;;3.55;1.20;;;;;;;6.91;59.22;102041.78;5084219;28;20039;-59
2023/04/04 08:16:22;;;;;;;2.45;0.80;;;;;;;6.90;58.93;102049.91;5098135;28;20084;-59
2023/04/04 08:18:48;;;;;;;2.88;0.70;;;;;;;6.87;59.20;102049.22;5109879;28;20069;-59
2023/04/04 08:21:15;;;;;;;2.53;1.00;;;;;;;6.88;58.90;102044.72;5113190;27;20023;-59
2023/04/04 08:23:41;;;;;;;3.67;0.95;;;;;;;6.77;59.69;102048.44;5088271;28;20066;-59
2023/04/04 08:26:08;;;;;;;3.25;0.88;;;;;;;6.87;59.44;102051.03;5092427;28;20605;-59
2023/04/04 08:28:34;;;;;;;1.02;0.70;;;;;;;6.77;60.29;102047.63;5093507;28;20083;-60
2023/04/04 08:31:00;;;;;;;3.55;1.10;;;;;;;6.79;59.17;102043.00;5091478;28;20035;-60
2023/04/04 08:33:26;;;;;;;3.90;0.80;;;;;;;6.69;60.04;102055.53;5093701;28;20020;-60
2023/04/04 08:35:53;;;;;;;4.45;0.85;;;;;;;6.68;60.07;102049.38;5105906;28;20156;-60
2023/04/04 08:38:19;;;;;;;2.85;0.90;;;;;;;6.62;60.27;102049.97;5099190;28;20494;-60
2023/04/04 08:40:49;;;;;;;2.90;0.90;;;;;;;6.78;59.72;102052.81;5092353;28;20103;-60
2023/04/04 08:43:17;;;;;;;6.03;0.98;;;;;;;6.75;59.81;102046.94;5092159;28;20031;-60
2023/04/04 08:45:45;;;;;;;4.15;0.95;;;;;;;6.80;59.71;102056.16;5105235;28;20067;-60
2023/04/04 08:48:15;;;;;;;1.92;0.63;;;;;;;6.73;59.67;102059.56;5102947;28;21663;-59
2023/04/04 08:50:41;;;;;;;3.53;0.80;;;;;;;6.77;59.24;102053.78;5097601;28;20031;-60
2023/04/04 08:53:11;;;;;;;2.15;1.00;;;;;;;6.66;59.83;102053.16;5112339;28;20384;-59
2023/04/04 08:55:38;;;;;;;2.40;0.50;;;;;;;6.71;59.83;102058.88;5085234;28;20492;-60
2023/04/04 08:58:05;;;;;;;3.60;0.88;;;;;;;6.65;60.08;102056.81;5105253;28;20028;-60
2023/04/04 09:00:31;;;;;;;1.88;1.00;;;;;;;6.71;59.43;102069.50;5107990;28;20594;-59
2023/04/04 09:03:31;;;;;;;1.63;0.77;;;;;;;6.63;59.44;102067.63;5099513;28;20036;-59
2023/04/04 09:05:58;;;;;;;1.88;0.90;;;;;;;6.66;59.43;102061.97;5040001;28;20067;-59
2023/04/04 09:08:25;;;;;;;4.43;0.82;;;;;;;6.66;59.57;102059.31;5088602;28;20070;-59
2023/04/04 09:10:53;;;;;;;1.13;0.60;;;;;;;6.68;59.40;102062.69;5071755;28;20016;-59
2023/04/04 09:13:19;;;;;;;2.58;0.75;;;;;;;6.59;59.38;102063.56;5108724;28;20052;-59
2023/04/04 09:15:54;;;;;;;3.25;1.00;;;;;;;6.58;59.60;102064.56;5104418;28;20089;-59
2023/04/04 09:18:20;;;;;;;2.67;0.73;;;;;;;6.69;59.25;102068.84;5111507;28;20027;-59
2023/04/04 09:20:47;;;;;;;3.20;0.63;;;;;;;6.68;58.90;102067.16;5102262;28;20020;-60
2023/04/04 09:23:17;;;;;;;2.53;0.82;;;;;;;6.50;59.03;102059.16;5099990;28;20448;-59
2023/04/04 09:25:48;;;;;;;4.18;0.88;;;;;;;6.57;58.97;102061.06;5089716;28;20032;-59
2023/04/04 09:28:16;;;;;;;3.92;1.10;;;;;;;6.60;59.19;102055.44;5098644;28;20024;-60
2023/04/04 09:30:43;;;;;;;4.40;0.80;;;;;;;6.55;59.65;102056.88;5104888;28;20071;-60
2023/04/04 09:33:12;;;;;;;2.13;0.80;;;;;;;6.46;59.23;102058.63;5112088;28;20023;-59
2023/04/04 09:35:43;;;;;;;2.05;0.70;;;;;;;6.61;59.03;102062.44;5093678;28;20566;-60
2023/04/04 09:38:09;;;;;;;4.82;1.02;;;;;;;6.53;58.69;102059.69;5112109;28;20521;-60
2023/04/04 09:40:36;;;;;;;3.53;0.88;;;;;;;6.54;58.75;102063.19;5102627;28;20035;-60
2023/04/04 09:43:06;;;;;;;3.75;0.80;;;;;;;6.51;58.94;102069.66;5111862;28;20019;-60
2023/04/04 09:45:39;;;;;;;5.45;1.02;;;;;;;6.58;58.98;102076.03;5103784;28;20110;-60
2023/04/04 09:48:09;;;;;;;2.45;0.60;;;;;;;6.54;58.25;102065.84;5104783;28;20077;-59
2023/04/04 09:50:45;;;;;;;1.85;0.70;;;;;;;6.43;59.15;102071.38;5109525;28;20548;-59
2023/04/04 09:53:18;;;;;;;3.33;0.85;;;;;;;6.44;59.40;102067.72;5090039;28;20040;-60
2023/04/04 09:55:52;;;;;;;2.25;0.88;;;;;;;6.50;58.93;102060.00;5071365;28;20021;-59
2023/04/04 09:58:25;;;;;;;2.58;0.60;;;;;;;6.45;58.88;102059.59;5079319;28;20069;-59
2023/04/04 10:01:00;;;;;;;1.30;0.43;;;;;;;6.45;58.32;102056.94;5091474;28;20013;-59
2023/04/04 10:03:28;;;;;;;1.00;0.50;;;;;;;6.43;58.64;102060.72;5091304;28;20093;-59
2023/04/04 10:05:56;;;;;;;1.73;0.75;;;;;;;6.39;58.59;102057.56;5091569;28;20028;-59
2023/04/04 10:08:23;;;;;;;2.53;0.70;;;;;;;6.47;58.29;102051.47;5091397;28;20040;-59
2023/04/04 10:10:58;;;;;;;3.30;0.85;;;;;;;6.34;58.62;102063.31;5096781;28;20349;-59
2023/04/04 10:13:35;;;;;;;2.55;0.68;;;;;;;6.33;59.30;102066.13;5090897;28;20040;-59
2023/04/04 10:16:03;;;;;;;2.08;0.60;;;;;;;6.44;59.04;102060.59;5091481;28;20032;-59
2023/04/04 10:18:34;;;;;;;2.00;0.77;;;;;;;6.44;58.57;102062.41;5091283;28;20388;-59
2023/04/04 10:21:03;;;;;;;0.75;0.50;;;;;;;6.42;58.37;102059.91;5091316;28;20024;-59
2023/04/04 10:23:29;;;;;;;2.63;0.70;;;;;;;6.47;58.51;102062.94;5090990;28;20376;-59
2023/04/04 10:25:58;;;;;;;1.20;0.45;;;;;;;6.32;58.47;102059.09;5091321;28;20507;-59
2023/04/04 10:28:25;;;;;;;1.95;0.70;;;;;;;6.49;57.77;102060.97;5111697;28;20035;-59
2023/04/04 10:31:01;;;;;;;1.65;0.52;;;;;;;6.52;57.34;102059.84;5115684;27;20105;-58
2023/04/04 10:33:49;;;;;;;1.67;0.63;;;;;;;6.38;57.52;102069.16;5115051;28;20019;-58
2023/04/04 10:36:21;;;;;;;2.47;0.70;;;;;;;6.32;57.72;102059.09;5115410;28;20031;-59
2023/04/04 10:38:56;;;;;;;3.10;0.65;;;;;;;6.29;58.43;102057.59;5115410;27;20020;-59
2023/04/04 10:41:24;;;;;;;1.90;0.63;;;;;;;6.24;58.33;102061.69;5101528;28;20016;-59
2023/04/04 10:43:55;;;;;;;1.58;0.73;;;;;;;6.30;57.85;102050.44;5083561;28;20047;-59
2023/04/04 10:46:29;;;;;;;1.10;0.73;;;;;;;6.38;57.70;102055.00;5092827;28;20024;-58
2023/04/04 10:48:59;;;;;;;3.92;1.00;;;;;;;6.28;58.01;102055.09;5083084;28;20016;-58
2023/04/04 10:51:26;;;;;;;2.55;0.82;;;;;;;6.32;57.71;102048.47;5094625;28;20020;-58
2023/04/04 10:53:53;;;;;;;3.97;0.82;;;;;;;6.31;58.08;102044.13;5092737;28;20016;-59
2023/04/04 10:56:21;;;;;;;2.83;0.70;;;;;;;6.22;58.11;102045.03;5093014;28;20035;-58
2023/04/04 10:58:48;;;;;;;1.45;0.50;;;;;;;6.25;57.66;102040.25;5092606;28;20035;-58
2023/04/04 11:01:19;;;;;;;2.80;0.70;;;;;;;6.30;57.39;102040.66;5097979;28;20019;-59
2023/04/04 11:04:18;;;;;;;3.22;0.90;;;;;;;6.11;58.50;102050.53;5094346;28;20388;-58
2023/04/04 11:07:04;;;;;;;4.10;0.60;;;;;;;6.19;57.81;102042.69;5077742;28;20035;-58
2023/04/04 11:09:52;;;;;;;2.38;0.60;;;;;;;6.20;58.07;102041.69;5098603;28;20425;-58
2023/04/04 11:12:26;;;;;;;1.45;0.68;;;;;;;6.13;58.57;102044.09;5107987;28;20476;-59
2023/04/04 11:14:56;;;;;;;3.38;0.85;;;;;;;6.23;58.19;102039.56;5087961;28;20094;-59
2023/04/04 11:17:42;;;;;;;3.72;0.70;;;;;;;6.10;58.27;102044.38;5094320;28;20111;-58
2023/04/04 11:20:10;;;;;;;3.28;0.77;;;;;;;6.10;57.98;102049.69;5092842;28;20078;-58
2023/04/04 11:22:37;;;;;;;6.05;0.88;;;;;;;6.08;57.58;102057.81;5093624;28;20024;-59
2023/04/04 11:25:40;;;;;;;1.70;0.63;;;;;;;6.21;57.52;102061.97;5094159;28;20518;-58
2023/04/04 11:28:09;;;;;;;3.45;0.80;;;;;;;6.17;57.87;102053.47;5051717;28;20028;-59
2023/04/04 11:30:47;;;;;;;3.05;0.73;;;;;;;6.09;58.49;102062.16;5093725;28;20130;-59
2023/04/04 11:33:25;;;;;;;1.88;0.57;;;;;;;6.05;58.25;102058.13;5093840;28;20052;-59
2023/04/04 11:35:51;;;;;;;3.00;0.70;;;;;;;6.17;57.91;102048.16;5110103;28;20415;-59